Time,TemperatureF,DewpointF,PressureIn,WindDirection,WindDirectionDegrees,WindSpeedMPH,WindSpeedGustMPH,Humidity,HourlyPrecipIn,Conditions,Clouds,dailyrainin,SoftwareType,DateUTC
2013-04-06 00:00:00,48.1,29.8,29.95,NW,315,3.0,10.0,49,0.00,,,-99.99,WeatherLink 5.6,2013-04-06 04:00:00,
2013-04-06 00:30:00,47.6,29.9,29.95,NW,315,2.0,9.0,50,0.00,,,-99.99,WeatherLink 5.6,2013-04-06 04:30:00,
2013-04-06 01:00:00,47.1,29.9,29.96,NW,315,2.0,7.0,51,0.00,,,-99.99,WeatherLink 5.6,2013-04-06 05:00:00,
2013-04-06 01:30:00,46.5,30.3,29.95,NW,315,0.0,6.0,53,0.00,,,-99.99,WeatherLink 5.6,2013-04-06 05:30:00,
2013-04-06 02:00:00,45.7,30.9,29.97,NW,315,1.0,7.0,56,0.00,,,-99.99,WeatherLink 5.6,2013-04-06 06:00:00,
2013-04-06 02:30:00,44.3,30.9,29.97,NNW,337,0.0,7.0,59,0.00,,,-99.99,WeatherLink 5.6,2013-04-06 06:30:00,
2013-04-06 03:00:00,44.2,30.8,29.97,North,0,0.0,5.0,59,0.00,,,-99.99,WeatherLink 5.6,2013-04-06 07:00:00,
2013-04-06 03:30:00,42.6,30.1,29.96,North,-999,0.0,0.0,61,0.00,,,-99.99,WeatherLink 5.6,2013-04-06 07:30:00,
2013-04-06 04:00:00,41.9,30.2,29.97,North,-999,0.0,0.0,63,0.00,,,-99.99,WeatherLink 5.6,2013-04-06 08:00:00,
2013-04-06 04:30:00,41.6,30.3,29.96,North,-999,0.0,0.0,64,0.00,,,-99.99,WeatherLink 5.6,2013-04-06 08:30:00,
2013-04-06 05:00:00,41.0,30.1,29.97,North,-999,0.0,0.0,65,0.00,,,-99.99,WeatherLink 5.6,2013-04-06 09:00:00,
2013-04-06 05:30:00,42.1,30.0,29.96,North,-999,0.0,0.0,62,0.00,,,-99.99,WeatherLink 5.6,2013-04-06 09:30:00,
2013-04-06 05:40:00,41.9,29.8,29.97,North,-999,0.0,0.0,62,0.00,,,-99.99,WeatherLink 5.6,2013-04-06 09:40:00,
2013-04-06 06:10:00,41.6,29.5,29.99,North,-999,0.0,0.0,62,0.00,,,-99.99,WeatherLink 5.6,2013-04-06 10:10:00,
2013-04-06 06:40:00,41.1,29.5,30.00,North,-999,0.0,0.0,63,0.00,,,-99.99,WeatherLink 5.6,2013-04-06 10:40:00,
2013-04-06 07:10:00,41.6,29.5,30.02,North,-999,0.0,0.0,62,0.00,,,-99.99,WeatherLink 5.6,2013-04-06 11:10:00,
2013-04-06 07:40:00,42.7,29.8,30.04,North,-999,0.0,0.0,60,0.00,,,-99.99,WeatherLink 5.6,2013-04-06 11:40:00,
2013-04-06 08:10:00,44.2,31.2,30.04,North,-999,0.0,0.0,60,0.00,,,-99.99,WeatherLink 5.6,2013-04-06 12:10:00,
2013-04-06 08:40:00,45.0,30.7,30.05,SSE,157,0.0,2.0,57,0.00,,,-99.99,WeatherLink 5.6,2013-04-06 12:40:00,
2013-04-06 09:10:00,46.3,31.4,30.05,SE,135,1.0,3.0,56,0.00,,,-99.99,WeatherLink 5.6,2013-04-06 13:10:00,
2013-04-06 09:40:00,48.0,33.0,30.05,SE,135,2.0,5.0,56,0.00,,,-99.99,WeatherLink 5.6,2013-04-06 13:40:00,
2013-04-06 10:10:00,50.5,33.0,30.03,SE,135,2.0,7.0,51,0.00,,,-99.99,WeatherLink 5.6,2013-04-06 14:10:00,
2013-04-06 10:40:00,51.5,34.4,30.04,SSW,202,3.0,11.0,52,0.00,,,-99.99,WeatherLink 5.6,2013-04-06 14:40:00,
2013-04-06 11:10:00,51.9,32.8,30.04,SSW,202,5.0,13.0,48,0.00,,,-99.99,WeatherLink 5.6,2013-04-06 15:10:00,
2013-04-06 11:40:00,53.0,36.3,30.04,SSW,202,6.0,14.0,53,0.00,,,-99.99,WeatherLink 5.6,2013-04-06 15:40:00,
2013-04-06 12:10:00,54.5,34.7,30.03,SSW,202,6.0,14.0,47,0.00,,,-99.99,WeatherLink 5.6,2013-04-06 16:10:00,
2013-04-06 12:40:00,55.5,34.5,30.02,SSW,202,3.0,12.0,45,0.00,,,-99.99,WeatherLink 5.6,2013-04-06 16:40:00,
2013-04-06 13:20:00,57.1,36.5,30.01,SSW,202,2.0,12.0,46,0.00,,,-99.99,WeatherLink 5.6,2013-04-06 17:20:00,
2013-04-06 13:40:00,58.1,35.7,30.01,SSW,202,5.0,16.0,43,0.00,,,-99.99,WeatherLink 5.6,2013-04-06 17:40:00,
2013-04-06 14:10:00,59.0,39.9,29.99,South,180,4.0,15.0,49,0.00,,,-99.99,WeatherLink 5.6,2013-04-06 18:10:00,
2013-04-06 14:40:00,59.9,34.9,29.98,SSW,202,6.0,15.0,39,0.00,,,-99.99,WeatherLink 5.6,2013-04-06 18:40:00,
2013-04-06 15:10:00,61.1,37.8,29.97,SE,135,5.0,17.0,42,0.00,,,-99.99,WeatherLink 5.6,2013-04-06 19:10:00,
2013-04-06 15:40:00,60.7,34.3,29.96,South,180,5.0,17.0,37,0.00,,,-99.99,WeatherLink 5.6,2013-04-06 19:40:00,
2013-04-06 16:10:00,61.1,33.9,29.94,South,180,8.0,18.0,36,0.00,,,-99.99,WeatherLink 5.6,2013-04-06 20:10:00,
2013-04-06 16:40:00,61.8,33.8,29.93,South,180,7.0,19.0,35,0.00,,,-99.99,WeatherLink 5.6,2013-04-06 20:40:00,
2013-04-06 17:10:00,61.7,30.7,29.93,South,180,7.0,23.0,31,0.00,,,-99.99,WeatherLink 5.6,2013-04-06 21:10:00,
2013-04-06 17:40:00,61.3,29.6,29.94,South,180,8.0,19.0,30,0.00,,,-99.99,WeatherLink 5.6,2013-04-06 21:40:00,
2013-04-06 18:10:00,61.0,33.1,29.94,SSW,202,5.0,17.0,35,0.00,,,-99.99,WeatherLink 5.6,2013-04-06 22:10:00,
2013-04-06 18:40:00,60.8,33.7,29.94,SSW,202,3.0,12.0,36,0.00,,,-99.99,WeatherLink 5.6,2013-04-06 22:40:00,
2013-04-06 19:00:00,59.8,34.8,29.94,SSW,202,1.0,9.0,39,0.00,,,-99.99,WeatherLink 5.6,2013-04-06 23:00:00,
2013-04-06 19:30:00,59.5,33.9,29.93,South,180,2.0,5.0,38,0.00,,,-99.99,WeatherLink 5.6,2013-04-06 23:30:00,
2013-04-06 20:00:00,59.0,34.1,29.93,South,180,2.0,7.0,39,0.00,,,-99.99,WeatherLink 5.6,2013-04-07 00:00:00,
2013-04-06 20:30:00,59.0,34.1,29.92,South,180,3.0,10.0,39,0.00,,,-99.99,WeatherLink 5.6,2013-04-07 00:30:00,
2013-04-06 21:00:00,58.7,33.8,29.93,South,180,5.0,17.0,39,0.00,,,-99.99,WeatherLink 5.6,2013-04-07 01:00:00,
2013-04-06 21:30:00,57.7,36.5,29.91,South,180,6.0,17.0,45,0.00,,,-99.99,WeatherLink 5.6,2013-04-07 01:30:00,
2013-04-06 22:00:00,56.8,36.2,29.91,South,180,8.0,25.0,46,0.00,,,-99.99,WeatherLink 5.6,2013-04-07 02:00:00,
2013-04-06 22:30:00,55.5,36.1,29.91,South,180,8.0,26.0,48,0.00,,,-99.99,WeatherLink 5.6,2013-04-07 02:30:00,
2013-04-06 23:00:00,54.8,36.0,29.92,SSE,157,6.0,22.0,49,0.00,,,-99.99,WeatherLink 5.6,2013-04-07 03:00:00,
2013-04-06 23:30:00,54.9,35.0,29.91,South,180,10.0,27.0,47,0.00,,,-99.99,WeatherLink 5.6,2013-04-07 03:30:00,